Time;durP1;ratioP1;P1;durP2;ratioP2;P2;SDS_P1;SDS_P2;PMS_P1;PMS_P2;Temp;Humidity;BMP_temperature;BMP_pressure;BME280_temperature;BME280_humidity;BME280_pressure;Samples;Min_cycle;Max_cycle;Signal;HPM_P1;HPM_P2
2021/12/17 00:07:05;;;;;;;;;;;;;;;20.31;46.24;103801.50;7288325;19;152124;-50
2021/12/17 00:09:32;;;;;;;;;;;;;;;20.32;46.53;103803.22;7276820;19;153307;-50
2021/12/17 00:11:58;;;;;;;;;;;;;;;20.31;46.59;103796.75;7275452;19;151910;-50
2021/12/17 00:14:28;;;;;;;;;;;;;;;20.30;46.46;103800.66;7278185;19;152710;-50
2021/12/17 00:16:57;;;;;;;;;;;;;;;20.29;46.63;103790.50;7278121;19;153716;-50
2021/12/17 00:49:26;;;;;;;;;;;;;;;20.24;47.97;103784.72;7278598;19;152096;-50
2021/12/17 00:54:31;;;;;;;;;;;;;;;20.22;48.12;103791.66;7276520;19;151762;-51
2021/12/17 00:57:00;;;;;;;;;;;;;;;20.20;48.15;103780.69;7276264;19;153213;-49
2021/12/17 00:59:27;;;;;;;;;;;;;;;20.20;48.49;103785.44;7277186;19;152671;-51
2021/12/17 01:01:55;;;;;;;;;;;;;;;20.20;48.69;103788.25;7276475;19;152203;-50
2021/12/17 01:04:23;;;;;;;;;;;;;;;20.25;48.55;103782.78;7275350;19;152545;-51
2021/12/17 01:06:50;;;;;;;;;;;;;;;20.23;48.72;103794.25;7280509;19;151956;-50
2021/12/17 01:09:18;;;;;;;;;;;;;;;20.24;48.27;103786.69;7277747;19;153610;-50
2021/12/17 01:11:45;;;;;;;;;;;;;;;20.22;48.68;103788.84;7275995;19;153907;-50
2021/12/17 01:14:12;;;;;;;;;;;;;;;20.21;48.56;103781.56;7284134;19;151965;-50
2021/12/17 01:16:39;;;;;;;;;;;;;;;20.19;48.66;103780.91;7274334;19;153905;-49
2021/12/17 01:21:54;;;;;;;;;;;;;;;20.20;48.82;103775.06;7277723;19;151982;-50
2021/12/17 01:44:26;;;;;;;;;;;;;;;20.11;49.40;103772.84;7275755;19;152290;-49
2021/12/17 01:46:54;;;;;;;;;;;;;;;20.06;49.58;103776.34;7276667;19;151776;-49
2021/12/17 01:59:17;;;;;;;;;;;;;;;20.05;49.70;103773.75;7276626;19;152459;-50
2021/12/17 01:59:41;;;;;;;;;;;;;;;20.02;49.69;103777.91;7281565;19;151818;-50
2021/12/17 02:02:09;;;;;;;;;;;;;;;20.03;49.40;103781.59;7276546;19;153286;-50
2021/12/17 02:04:36;;;;;;;;;;;;;;;20.04;49.69;103783.28;7273667;19;153271;-50
2021/12/17 02:07:04;;;;;;;;;;;;;;;20.02;49.75;103775.09;7278030;19;151918;-50
2021/12/17 02:20:09;;;;;;;;;;;;;;;19.99;50.48;103781.16;7283755;19;154339;-50
2021/12/17 02:30:14;;;;;;;;;;;;;;;20.06;50.55;103773.53;7275897;19;152679;-50
2021/12/17 02:32:42;;;;;;;;;;;;;;;20.04;50.45;103763.63;7272795;19;153355;-50
2021/12/17 02:37:41;;;;;;;;;;;;;;;20.05;50.83;103776.56;7282478;19;153414;-50
2021/12/17 02:47:38;;;;;;;;;;;;;;;20.00;50.87;103766.06;7282220;19;152271;-50
2021/12/17 02:50:06;;;;;;;;;;;;;;;19.99;50.43;103773.63;7280437;19;152603;-50
2021/12/17 02:52:36;;;;;;;;;;;;;;;20.01;50.59;103753.75;7278393;19;153490;-50
2021/12/17 02:55:05;;;;;;;;;;;;;;;19.99;50.87;103759.59;7279555;19;151874;-50
2021/12/17 02:57:33;;;;;;;;;;;;;;;20.02;50.87;103771.44;7280869;19;153443;-50
2021/12/17 03:00:06;;;;;;;;;;;;;;;19.98;51.03;103780.34;7277486;19;153284;-50
2021/12/17 03:02:36;;;;;;;;;;;;;;;19.99;50.73;103769.94;7278331;19;151867;-51
2021/12/17 03:05:04;;;;;;;;;;;;;;;19.98;50.83;103768.25;7282561;19;153662;-50
2021/12/17 03:07:34;;;;;;;;;;;;;;;20.01;50.67;103766.91;7279963;19;151892;-50
2021/12/17 03:10:03;;;;;;;;;;;;;;;19.98;51.05;103771.94;7277328;19;151986;-50
2021/12/17 03:12:39;;;;;;;;;;;;;;;19.96;50.89;103768.47;7277468;19;153966;-50
2021/12/17 03:25:05;;;;;;;;;;;;;;;19.97;51.01;103755.31;7278174;19;153368;-50
2021/12/17 03:27:32;;;;;;;;;;;;;;;19.99;51.03;103764.34;7286138;19;152984;-50
2021/12/17 03:29:59;;;;;;;;;;;;;;;19.98;50.82;103757.91;7279751;19;152968;-50
2021/12/17 03:32:33;;;;;;;;;;;;;;;19.97;50.84;103755.31;7277998;19;153209;-50
2021/12/17 03:35:01;;;;;;;;;;;;;;;19.95;50.71;103746.25;7278553;19;151972;-51
2021/12/17 03:37:28;;;;;;;;;;;;;;;19.95;50.69;103751.88;7278772;19;153203;-51
2021/12/17 03:39:55;;;;;;;;;;;;;;;19.95;51.06;103757.47;7278093;19;153653;-51
2021/12/17 03:42:22;;;;;;;;;;;;;;;19.95;51.01;103755.53;7280219;19;151789;-51
2021/12/17 03:44:49;;;;;;;;;;;;;;;19.94;50.75;103759.44;7281010;19;153135;-52
2021/12/17 03:47:16;;;;;;;;;;;;;;;19.94;51.30;103759.44;7275156;19;152769;-52
2021/12/17 03:49:43;;;;;;;;;;;;;;;19.93;51.08;103760.53;7287593;19;152055;-51
2021/12/17 03:52:10;;;;;;;;;;;;;;;19.91;51.28;103762.72;7277317;19;153496;-50
2021/12/17 03:54:38;;;;;;;;;;;;;;;19.91;50.87;103757.09;7278598;19;151640;-50
2021/12/17 03:57:07;;;;;;;;;;;;;;;19.89;50.97;103762.13;7279539;19;153592;-51
2021/12/17 03:59:35;;;;;;;;;;;;;;;19.89;50.87;103759.31;7277342;19;152403;-50
2021/12/17 04:02:02;;;;;;;;;;;;;;;19.93;51.21;103763.34;7279207;19;152006;-50
2021/12/17 04:04:29;;;;;;;;;;;;;;;19.93;51.29;103766.16;7276824;19;152640;-51
2021/12/17 04:06:56;;;;;;;;;;;;;;;19.91;50.87;103765.53;7277400;19;154824;-50
2021/12/17 04:09:29;;;;;;;;;;;;;;;19.91;50.89;103757.09;7285892;19;151903;-49
2021/12/17 04:11:56;;;;;;;;;;;;;;;19.95;50.98;103771.50;7274890;19;152965;-51
2021/12/17 04:14:32;;;;;;;;;;;;;;;19.93;51.27;103765.31;7278358;19;152273;-51
2021/12/17 04:17:03;;;;;;;;;;;;;;;19.95;51.00;103768.72;7277900;19;153021;-51
2021/12/17 04:19:31;;;;;;;;;;;;;;;19.90;51.29;103766.59;7275021;19;152672;-51
2021/12/17 04:21:58;;;;;;;;;;;;;;;19.88;51.47;103767.94;7278727;19;152166;-51
2021/12/17 04:24:24;;;;;;;;;;;;;;;19.84;51.06;103763.91;7281679;19;153607;-51
2021/12/17 04:26:51;;;;;;;;;;;;;;;19.82;51.44;103763.28;7277364;19;153147;-50
2021/12/17 04:29:20;;;;;;;;;;;;;;;19.81;51.46;103764.34;7277658;19;152549;-51
2021/12/17 04:31:53;;;;;;;;;;;;;;;19.79;51.50;103759.00;7285288;19;153178;-51
2021/12/17 04:34:20;;;;;;;;;;;;;;;19.78;51.29;103768.50;7277286;19;152358;-48
2021/12/17 04:36:49;;;;;;;;;;;;;;;19.79;51.25;103767.41;7279627;19;153502;-48
2021/12/17 04:39:18;;;;;;;;;;;;;;;19.78;51.23;103762.88;7275833;19;153778;-51
2021/12/17 04:44:18;;;;;;;;;;;;;;;19.75;51.59;103763.38;7280064;19;152622;-50
2021/12/17 04:46:54;;;;;;;;;;;;;;;19.75;51.59;103759.72;7279842;19;153279;-51
2021/12/17 04:59:21;;;;;;;;;;;;;;;19.73;51.43;103750.66;7273058;19;152356;-51
2021/12/17 05:01:48;;;;;;;;;;;;;;;19.70;51.35;103752.00;7278129;19;152068;-51
2021/12/17 05:04:15;;;;;;;;;;;;;;;19.72;51.43;103760.16;7276562;19;153264;-51
2021/12/17 05:06:43;;;;;;;;;;;;;;;19.70;51.66;103757.59;7277616;19;152919;-51
2021/12/17 05:09:22;;;;;;;;;;;;;;;19.70;51.38;103754.81;7278846;19;152112;-51
2021/12/17 05:19:40;;;;;;;;;;;;;;;19.66;51.90;103769.53;7276832;19;153484;-51
2021/12/17 05:22:11;;;;;;;;;;;;;;;19.67;51.88;103774.06;7278630;19;151989;-51
2021/12/17 05:24:38;;;;;;;;;;;;;;;19.65;51.67;103771.47;7277828;19;153543;-51
2021/12/17 05:27:05;;;;;;;;;;;;;;;19.67;51.79;103782.47;7274905;19;152714;-50
2021/12/17 05:29:32;;;;;;;;;;;;;;;19.65;52.02;103773.41;7277401;19;151842;-51
2021/12/17 05:31:59;;;;;;;;;;;;;;;19.66;52.02;103772.34;7277956;19;152992;-51
2021/12/17 05:34:25;;;;;;;;;;;;;;;19.67;51.70;103774.06;7273714;19;154139;-51
2021/12/17 05:36:52;;;;;;;;;;;;;;;19.67;51.70;103780.50;7278474;19;152418;-51
2021/12/17 05:39:19;;;;;;;;;;;;;;;19.66;51.85;103773.19;7282156;19;152980;-50
2021/12/17 05:41:46;;;;;;;;;;;;;;;19.70;51.97;103774.44;7276055;19;152274;-51
2021/12/17 05:44:15;;;;;;;;;;;;;;;19.71;51.93;103784.56;7274889;19;153652;-51
2021/12/17 05:49:11;;;;;;;;;;;;;;;19.75;51.72;103780.22;7274644;19;151541;-51
2021/12/17 05:51:39;;;;;;;;;;;;;;;19.80;52.12;103783.16;7277291;19;151875;-51
2021/12/17 05:54:05;;;;;;;;;;;;;;;19.82;52.25;103782.91;7272235;19;153492;-51
2021/12/17 05:56:32;;;;;;;;;;;;;;;19.87;52.01;103783.94;7276063;19;152020;-51
2021/12/17 05:58:59;;;;;;;;;;;;;;;19.89;52.27;103778.94;7280331;19;153493;-51
2021/12/17 06:01:26;;;;;;;;;;;;;;;19.94;52.08;103781.06;7284431;19;153801;-51
2021/12/17 06:03:52;;;;;;;;;;;;;;;20.01;52.33;103794.97;7275986;19;153481;-51
2021/12/17 06:06:22;;;;;;;;;;;;;;;20.07;52.63;103789.28;7273622;19;152653;-51
2021/12/17 06:08:49;;;;;;;;;;;;;;;20.15;52.71;103788.09;7276988;19;151963;-51
2021/12/17 06:11:17;;;;;;;;;;;;;;;20.23;52.78;103791.44;7279584;19;152567;-51
2021/12/17 06:13:44;;;;;;;;;;;;;;;20.32;52.32;103786.38;7281589;19;152188;-52
2021/12/17 06:16:11;;;;;;;;;;;;;;;20.39;52.78;103787.16;7282268;19;151750;-51
2021/12/17 06:18:38;;;;;;;;;;;;;;;20.48;52.66;103794.16;7283008;19;152733;-51
2021/12/17 06:21:05;;;;;;;;;;;;;;;20.56;52.33;103793.81;7289736;19;153946;-51
2021/12/17 06:23:32;;;;;;;;;;;;;;;20.64;52.27;103793.44;7283779;19;153027;-50
2021/12/17 06:25:58;;;;;;;;;;;;;;;20.71;52.04;103794.22;7281560;19;152565;-51
2021/12/17 06:28:25;;;;;;;;;;;;;;;20.79;52.15;103791.06;7283368;19;151562;-51
2021/12/17 06:30:52;;;;;;;;;;;;;;;20.87;51.76;103787.03;7283598;19;152514;-51
2021/12/17 06:33:19;;;;;;;;;;;;;;;20.95;51.54;103795.09;7282945;19;153770;-51
2021/12/17 06:35:46;;;;;;;;;;;;;;;21.02;51.40;103792.19;7284266;19;152257;-51
2021/12/17 06:38:13;;;;;;;;;;;;;;;21.07;50.83;103790.38;7282266;19;152410;-51
2021/12/17 06:40:40;;;;;;;;;;;;;;;21.14;50.87;103796.75;7278961;19;152499;-48
2021/12/17 06:43:07;;;;;;;;;;;;;;;21.23;50.65;103794.44;7289092;19;152047;-48
2021/12/17 06:48:04;;;;;;;;;;;;;;;21.36;50.55;103801.75;7280533;19;152643;-48
2021/12/17 07:00:57;;;;;;;;;;;;;;;21.66;49.55;103800.53;7280242;19;153111;-49
2021/12/17 07:06:06;;;;;;;;;;;;;;;21.79;49.55;103793.78;7287770;19;151984;-48
2021/12/17 07:11:17;;;;;;;;;;;;;;;21.92;49.19;103793.50;7279463;19;153299;-50
2021/12/17 07:33:42;;;;;;;;;;;;;;;22.35;48.87;103795.00;7279049;19;153310;-50
2021/12/17 07:36:14;;;;;;;;;;;;;;;22.39;48.82;103799.00;7281150;19;151686;-50
2021/12/17 07:41:16;;;;;;;;;;;;;;;22.38;47.81;103797.28;7245320;19;155056;-51
2021/12/17 07:46:13;;;;;;;;;;;;;;;22.36;47.04;103797.53;7283248;19;153103;-51
2021/12/17 07:48:41;;;;;;;;;;;;;;;22.35;46.78;103795.81;7281054;19;152590;-50
2021/12/17 07:51:10;;;;;;;;;;;;;;;22.43;46.76;103798.25;7290258;19;152211;-60
2021/12/17 07:53:38;;;;;;;;;;;;;;;22.43;46.61;103805.84;7278653;19;153174;-54
2021/12/17 07:56:10;;;;;;;;;;;;;;;22.43;45.57;103806.72;7281115;19;152404;-58
2021/12/17 07:58:38;;;;;;;;;;;;;;;21.97;41.89;103810.53;7282923;19;153388;-49
2021/12/17 08:01:05;;;;;;;;;;;;;;;21.70;41.10;103809.34;7277286;19;154066;-50
2021/12/17 08:03:32;;;;;;;;;;;;;;;21.93;42.11;103814.97;7278508;19;152120;-51
2021/12/17 08:06:00;;;;;;;;;;;;;;;22.00;42.67;103817.63;7282654;19;153534;-50
2021/12/17 08:08:27;;;;;;;;;;;;;;;22.04;42.93;103821.66;7279360;19;153343;-50
2021/12/17 08:10:54;;;;;;;;;;;;;;;22.04;43.26;103816.88;7277929;19;152306;-51
2021/12/17 08:13:25;;;;;;;;;;;;;;;22.05;43.75;103826.19;7287844;19;152701;-50
2021/12/17 08:28:18;;;;;;;;;;;;;;;22.04;44.43;103830.09;7280821;19;153631;-51
2021/12/17 08:30:44;;;;;;;;;;;;;;;22.04;44.52;103825.31;7280784;19;152244;-50
2021/12/17 08:33:14;;;;;;;;;;;;;;;22.03;44.35;103823.59;7287232;19;152705;-51
2021/12/17 08:35:41;;;;;;;;;;;;;;;22.02;44.42;103821.91;7281882;19;151911;-51
2021/12/17 08:38:09;;;;;;;;;;;;;;;22.02;44.68;103827.56;7282147;19;152424;-51
2021/12/17 08:40:36;;;;;;;;;;;;;;;22.01;44.29;103825.84;7280117;19;153647;-50
2021/12/17 08:43:03;;;;;;;;;;;;;;;22.01;44.56;103833.41;7281472;19;152230;-50
2021/12/17 08:45:32;;;;;;;;;;;;;;;21.99;44.62;103828.03;7281220;19;152485;-50
2021/12/17 08:47:59;;;;;;;;;;;;;;;22.03;44.39;103822.78;7277941;19;152681;-51
2021/12/17 08:50:27;;;;;;;;;;;;;;;21.97;44.67;103833.06;7279361;19;151966;-52
2021/12/17 08:52:54;;;;;;;;;;;;;;;21.96;44.78;103836.13;7282515;19;152728;-51
2021/12/17 08:55:21;;;;;;;;;;;;;;;21.97;44.76;103835.03;7283137;19;153876;-50
2021/12/17 08:57:47;;;;;;;;;;;;;;;21.95;44.88;103837.22;7282058;19;153141;-50
2021/12/17 09:00:14;;;;;;;;;;;;;;;21.95;44.88;103842.84;7281367;19;154669;-50
2021/12/17 09:02:41;;;;;;;;;;;;;;;21.92;45.05;103838.56;7280753;19;151941;-50
2021/12/17 09:05:09;;;;;;;;;;;;;;;21.91;44.76;103839.66;7279606;19;153720;-51
2021/12/17 09:07:36;;;;;;;;;;;;;;;21.86;45.37;103845.16;7278868;19;153280;-51
2021/12/17 09:10:05;;;;;;;;;;;;;;;21.85;45.36;103854.69;7280771;19;152186;-50
2021/12/17 09:12:33;;;;;;;;;;;;;;;21.83;45.49;103851.28;7283059;19;152638;-50
2021/12/17 09:15:00;;;;;;;;;;;;;;;21.82;45.46;103848.72;7277824;19;153991;-51
2021/12/17 09:17:27;;;;;;;;;;;;;;;21.82;45.40;103859.97;7286479;19;152324;-50
2021/12/17 09:19:54;;;;;;;;;;;;;;;21.74;45.52;103849.97;7276400;19;153630;-50
2021/12/17 09:22:21;;;;;;;;;;;;;;;21.76;45.79;103860.97;7282586;19;151864;-50
2021/12/17 09:24:48;;;;;;;;;;;;;;;21.72;45.75;103860.59;7282679;19;152832;-49
2021/12/17 09:27:15;;;;;;;;;;;;;;;21.70;45.55;103854.38;7280201;19;152659;-50
2021/12/17 09:29:42;;;;;;;;;;;;;;;21.64;45.45;103850.56;7276572;19;152133;-51
2021/12/17 09:32:09;;;;;;;;;;;;;;;21.67;45.22;103858.50;7280844;19;153090;-50
2021/12/17 09:34:36;;;;;;;;;;;;;;;21.60;45.70;103862.56;7276164;19;153291;-50
2021/12/17 09:37:03;;;;;;;;;;;;;;;21.60;45.73;103869.06;7280977;19;151989;-51
2021/12/17 09:39:30;;;;;;;;;;;;;;;21.58;45.83;103878.81;7286603;19;152192;-50
2021/12/17 09:42:06;;;;;;;;;;;;;;;21.56;45.67;103875.41;7277940;19;151928;-49
2021/12/17 09:44:33;;;;;;;;;;;;;;;21.51;45.85;103881.78;7281492;19;153151;-51
2021/12/17 09:47:00;;;;;;;;;;;;;;;21.49;46.11;103881.13;7284936;19;152204;-49
2021/12/17 09:49:27;;;;;;;;;;;;;;;21.48;45.98;103889.84;7287682;19;152096;-50
2021/12/17 09:51:56;;;;;;;;;;;;;;;21.44;46.14;103897.88;7284375;19;153532;-50
2021/12/17 09:54:23;;;;;;;;;;;;;;;21.39;46.46;103903.41;7285525;19;153865;-50
2021/12/17 09:56:50;;;;;;;;;;;;;;;21.37;46.20;103897.16;7286449;19;152329;-51
2021/12/17 09:59:17;;;;;;;;;;;;;;;21.32;46.24;103911.09;7284649;19;153075;-50
2021/12/17 10:01:45;;;;;;;;;;;;;;;21.30;46.24;103913.31;7294063;19;153603;-51
2021/12/17 10:04:12;;;;;;;;;;;;;;;21.32;46.14;103913.91;7282875;19;152406;-50
2021/12/17 10:06:39;;;;;;;;;;;;;;;21.37;46.19;103913.19;7282644;19;153555;-50
2021/12/17 10:09:07;;;;;;;;;;;;;;;21.37;45.93;103916.00;7286384;19;151836;-50
2021/12/17 10:11:34;;;;;;;;;;;;;;;21.35;46.12;103909.78;7286228;19;152587;-49
2021/12/17 10:14:04;;;;;;;;;;;;;;;21.39;46.20;103913.81;7285025;19;153572;-49
2021/12/17 10:16:39;;;;;;;;;;;;;;;21.42;46.15;103914.16;7286079;19;152127;-50
2021/12/17 10:19:05;;;;;;;;;;;;;;;21.44;46.09;103914.78;7282878;19;152475;-49
2021/12/17 10:21:38;;;;;;;;;;;;;;;21.46;45.81;103912.59;7285587;19;153807;-50
2021/12/17 10:24:05;;;;;;;;;;;;;;;21.48;45.73;103909.53;7293476;19;152403;-50
2021/12/17 10:26:35;;;;;;;;;;;;;;;21.51;45.80;103915.53;7284204;19;153299;-51
2021/12/17 10:29:04;;;;;;;;;;;;;;;21.54;45.78;103902.91;7285010;19;152167;-50
2021/12/17 10:31:35;;;;;;;;;;;;;;;21.54;45.42;103906.59;7283327;19;153133;-50
2021/12/17 10:34:04;;;;;;;;;;;;;;;21.56;45.48;103904.41;7281197;19;153902;-51
2021/12/17 10:36:31;;;;;;;;;;;;;;;21.59;45.54;103911.50;7285647;19;152175;-51
2021/12/17 10:39:21;;;;;;;;;;;;;;;21.58;45.47;103913.44;7283284;19;152997;-50
2021/12/17 10:41:49;;;;;;;;;;;;;;;21.59;44.96;103909.53;7284443;19;154081;-50
2021/12/17 10:44:16;;;;;;;;;;;;;;;21.58;44.88;103909.75;7292266;19;152375;-50
2021/12/17 10:46:57;;;;;;;;;;;;;;;21.60;45.25;103916.03;7283866;19;154620;-50
2021/12/17 10:49:25;;;;;;;;;;;;;;;21.59;44.85;103911.50;7284383;19;152209;-49
2021/12/17 10:52:01;;;;;;;;;;;;;;;21.59;44.67;103897.41;7283739;19;153161;-49
2021/12/17 10:54:32;;;;;;;;;;;;;;;21.58;44.63;103909.75;7281481;19;153763;-49
2021/12/17 10:56:59;;;;;;;;;;;;;;;21.58;44.59;103905.00;7285314;19;152341;-50
2021/12/17 10:59:31;;;;;;;;;;;;;;;21.57;44.80;103905.28;7282939;19;153648;-50
2021/12/17 11:02:02;;;;;;;;;;;;;;;21.55;44.45;103899.88;7281620;19;152201;-50
2021/12/17 11:04:31;;;;;;;;;;;;;;;21.56;44.83;103909.19;7283474;19;152542;-51
2021/12/17 11:06:59;;;;;;;;;;;;;;;21.54;44.96;103915.03;7288968;19;153190;-50
2021/12/17 11:09:29;;;;;;;;;;;;;;;21.53;44.44;103898.41;7284347;19;152333;-51
2021/12/17 11:11:57;;;;;;;;;;;;;;;21.52;44.54;103894.75;7284620;19;152120;-50
2021/12/17 11:14:38;;;;;;;;;;;;;;;21.48;44.49;103904.78;7283774;19;153492;-50
2021/12/17 11:17:22;;;;;;;;;;;;;;;21.46;44.93;103895.72;7286628;19;152070;-51
2021/12/17 11:20:07;;;;;;;;;;;;;;;21.44;44.66;103897.88;7284457;19;152884;-50
2021/12/17 11:22:35;;;;;;;;;;;;;;;21.43;44.66;103900.97;7282949;19;153203;-49
2021/12/17 11:25:03;;;;;;;;;;;;;;;21.41;44.84;103897.53;7283373;19;151694;-50
2021/12/17 11:27:30;;;;;;;;;;;;;;;21.41;44.83;103898.38;7284168;19;153472;-50
2021/12/17 11:29:58;;;;;;;;;;;;;;;21.39;44.72;103888.50;7287851;19;154229;-51
2021/12/17 11:32:24;;;;;;;;;;;;;;;21.36;44.78;103889.81;7284156;19;153641;-50
2021/12/17 11:34:52;;;;;;;;;;;;;;;21.34;44.80;103891.16;7281716;19;153293;-50
2021/12/17 11:37:20;;;;;;;;;;;;;;;21.31;45.05;103892.50;7282028;19;151769;-50
2021/12/17 11:39:51;;;;;;;;;;;;;;;21.30;44.85;103897.25;7283831;19;153037;-50
2021/12/17 11:42:28;;;;;;;;;;;;;;;21.26;45.15;103898.84;7282335;19;153841;-50
2021/12/17 11:47:33;;;;;;;;;;;;;;;21.23;44.72;103890.03;7281914;19;153253;-50
2021/12/17 11:50:04;;;;;;;;;;;;;;;21.20;44.80;103887.72;7281114;19;152820;-49
2021/12/17 11:52:34;;;;;;;;;;;;;;;21.17;44.74;103889.03;7288910;19;152477;-49
2021/12/17 11:55:04;;;;;;;;;;;;;;;21.15;45.07;103884.78;7279437;19;153090;-50
2021/12/17 11:57:40;;;;;;;;;;;;;;;21.15;45.31;103879.16;7283275;19;151975;-50
2021/12/17 12:00:13;;;;;;;;;;;;;;;21.12;44.97;103877.63;7283291;19;152709;-51
2021/12/17 12:02:47;;;;;;;;;;;;;;;21.14;45.18;103877.44;7282181;19;153655;-50
2021/12/17 12:05:17;;;;;;;;;;;;;;;21.12;45.33;103886.06;7282094;19;151870;-50
2021/12/17 12:07:44;;;;;;;;;;;;;;;21.10;45.07;103882.66;7285152;19;151951;-50
2021/12/17 12:10:12;;;;;;;;;;;;;;;21.07;45.14;103874.72;7284124;19;153733;-50
2021/12/17 12:12:44;;;;;;;;;;;;;;;21.06;45.08;103870.19;7284867;19;151915;-50
2021/12/17 12:15:15;;;;;;;;;;;;;;;21.05;45.27;103870.41;7285929;19;153523;-49
2021/12/17 12:18:09;;;;;;;;;;;;;;;21.04;45.02;103861.13;7283258;19;152608;-51
2021/12/17 12:20:57;;;;;;;;;;;;;;;21.02;45.46;103860.53;7284424;19;151929;-50
2021/12/17 12:23:28;;;;;;;;;;;;;;;21.00;44.97;103859.88;7283375;19;152731;-50
2021/12/17 12:25:58;;;;;;;;;;;;;;;20.99;44.95;103865.75;7282452;19;151924;-50
2021/12/17 12:28:40;;;;;;;;;;;;;;;20.96;45.23;103855.00;7280591;19;152651;-51
2021/12/17 12:31:20;;;;;;;;;;;;;;;20.95;45.07;103859.75;7279396;19;152094;-50
2021/12/17 12:33:50;;;;;;;;;;;;;;;20.94;45.45;103860.84;7281826;19;152638;-52
2021/12/17 12:36:38;;;;;;;;;;;;;;;20.92;45.35;103856.56;7278918;19;153640;-50
2021/12/17 12:39:08;;;;;;;;;;;;;;;20.90;45.67;103851.19;7286788;19;152343;-50
2021/12/17 12:41:38;;;;;;;;;;;;;;;20.88;45.19;103849.72;7282712;19;153285;-50
2021/12/17 12:44:05;;;;;;;;;;;;;;;20.85;45.22;103845.41;7278952;19;151980;-50
2021/12/17 12:46:34;;;;;;;;;;;;;;;20.83;45.74;103839.19;7279894;19;152635;-50
2021/12/17 12:49:21;;;;;;;;;;;;;;;20.81;45.41;103833.81;7281524;19;153370;-49
2021/12/17 12:51:48;;;;;;;;;;;;;;;20.80;45.87;103836.88;7279663;19;154002;-50
2021/12/17 12:54:22;;;;;;;;;;;;;;;20.75;45.68;103840.41;7281895;19;152345;-50
2021/12/17 12:56:49;;;;;;;;;;;;;;;20.74;45.65;103830.25;7276968;19;153017;-51
2021/12/17 12:59:21;;;;;;;;;;;;;;;20.73;45.79;103833.31;7288672;19;153757;-50
2021/12/17 13:01:48;;;;;;;;;;;;;;;20.69;45.55;103826.44;7281070;19;151791;-50
2021/12/17 13:04:15;;;;;;;;;;;;;;;20.69;45.96;103835.75;7276528;19;152775;-50
2021/12/17 13:06:47;;;;;;;;;;;;;;;20.63;45.74;103822.63;7279793;19;152652;-50
2021/12/17 13:09:26;;;;;;;;;;;;;;;20.63;45.89;103822.63;7281325;19;152951;-51
2021/12/17 13:11:53;;;;;;;;;;;;;;;20.59;46.20;103818.59;7277643;19;153575;-49
2021/12/17 13:14:24;;;;;;;;;;;;;;;20.61;45.72;103827.66;7280364;19;151773;-51
2021/12/17 13:24:24;;;;;;;;;;;;;;;20.49;45.89;103800.63;7279075;19;153016;-50
2021/12/17 13:26:53;;;;;;;;;;;;;;;20.46;46.25;103799.13;7280992;19;151946;-51
2021/12/17 13:29:24;;;;;;;;;;;;;;;20.46;46.04;103795.47;7280646;19;154077;-51
2021/12/17 13:31:54;;;;;;;;;;;;;;;20.44;45.89;103792.06;7279521;19;153798;-51
2021/12/17 13:34:21;;;;;;;;;;;;;;;20.43;45.94;103794.00;7278822;19;151606;-50
2021/12/17 13:36:51;;;;;;;;;;;;;;;20.39;45.77;103789.97;7277014;19;152694;-51
2021/12/17 13:39:18;;;;;;;;;;;;;;;20.39;46.00;103789.97;7279030;19;153347;-50
2021/12/17 13:41:46;;;;;;;;;;;;;;;20.37;45.74;103795.81;7281308;19;152028;-51
2021/12/17 13:44:16;;;;;;;;;;;;;;;20.36;45.79;103787.59;7287478;19;152681;-51
2021/12/17 13:46:43;;;;;;;;;;;;;;;20.33;45.62;103790.91;7278596;19;151859;-51
2021/12/17 13:49:10;;;;;;;;;;;;;;;20.34;45.61;103790.69;7279058;19;152219;-50
2021/12/17 13:51:37;;;;;;;;;;;;;;;20.31;46.01;103784.66;7279612;19;153399;-51
2021/12/17 13:54:16;;;;;;;;;;;;;;;20.30;46.02;103789.44;7282076;19;151810;-50
2021/12/17 13:57:04;;;;;;;;;;;;;;;20.28;45.83;103777.53;7278062;19;152416;-51
2021/12/17 13:59:33;;;;;;;;;;;;;;;20.24;45.73;103778.25;7277013;19;153160;-51
2021/12/17 14:02:03;;;;;;;;;;;;;;;20.24;46.06;103778.25;7280424;19;151927;-50
2021/12/17 14:04:34;;;;;;;;;;;;;;;20.21;46.02;103775.94;7278007;19;154155;-51
2021/12/17 14:07:04;;;;;;;;;;;;;;;20.17;46.11;103778.34;7286189;19;152281;-50
2021/12/17 14:09:31;;;;;;;;;;;;;;;20.19;46.07;103776.16;7278678;19;152605;-51
2021/12/17 14:12:04;;;;;;;;;;;;;;;20.18;45.74;103776.38;7275574;19;154522;-50
2021/12/17 14:14:54;;;;;;;;;;;;;;;20.15;45.88;103774.06;7279285;19;152341;-51
2021/12/17 14:17:21;;;;;;;;;;;;;;;20.12;46.12;103772.59;7277217;19;152853;-51
2021/12/17 14:19:48;;;;;;;;;;;;;;;20.09;46.34;103769.38;7275219;19;152079;-51
2021/12/17 14:22:18;;;;;;;;;;;;;;;20.10;45.88;103776.72;7279592;19;152094;-51
2021/12/17 14:24:57;;;;;;;;;;;;;;;20.06;46.39;103776.34;7277554;19;153640;-51
2021/12/17 14:27:45;;;;;;;;;;;;;;;20.06;46.03;103770.72;7277466;19;152959;-51
2021/12/17 14:30:12;;;;;;;;;;;;;;;20.02;46.13;103779.88;7285990;19;151778;-51
2021/12/17 14:32:42;;;;;;;;;;;;;;;20.00;46.61;103771.66;7282266;19;154070;-50
2021/12/17 14:35:10;;;;;;;;;;;;;;;20.01;46.20;103773.38;7284937;19;151861;-50
2021/12/17 14:37:40;;;;;;;;;;;;;;;19.98;46.58;103773.88;7281460;19;152161;-50
2021/12/17 14:40:22;;;;;;;;;;;;;;;19.95;46.24;103769.56;7283614;19;153951;-51
2021/12/17 14:42:51;;;;;;;;;;;;;;;19.96;46.63;103774.09;7283694;19;152210;-51
2021/12/17 14:45:21;;;;;;;;;;;;;;;19.92;46.64;103778.47;7283040;19;153330;-51
2021/12/17 14:47:56;;;;;;;;;;;;;;;19.91;46.42;103771.13;7284378;19;153661;-50
2021/12/17 15:05:26;;;;;;;;;;;;;;;19.80;46.66;103780.38;7281627;19;153404;-50
2021/12/17 15:07:54;;;;;;;;;;;;;;;19.79;47.04;103778.63;7283883;19;152482;-51
2021/12/17 15:10:23;;;;;;;;;;;;;;;19.77;46.86;103777.13;7284517;19;152491;-51
2021/12/17 15:12:51;;;;;;;;;;;;;;;19.79;47.08;103777.78;7291358;19;152691;-51
2021/12/17 15:15:19;;;;;;;;;;;;;;;19.77;46.91;103786.41;7283457;19;152057;-50
2021/12/17 15:17:48;;;;;;;;;;;;;;;19.74;46.70;103786.91;7280820;19;152658;-50
2021/12/17 15:20:20;;;;;;;;;;;;;;;19.76;47.00;103781.88;7282597;19;152974;-51
2021/12/17 15:22:47;;;;;;;;;;;;;;;19.74;47.19;103784.09;7282451;19;151858;-50
2021/12/17 15:25:15;;;;;;;;;;;;;;;19.71;46.83;103778.97;7282935;19;152003;-51
2021/12/17 15:27:42;;;;;;;;;;;;;;;19.72;46.94;103783.44;7281746;19;153718;-51
2021/12/17 15:30:12;;;;;;;;;;;;;;;19.70;47.13;103780.03;7281784;19;152461;-51
2021/12/17 15:32:39;;;;;;;;;;;;;;;19.71;47.17;103784.56;7281728;19;152462;-50
2021/12/17 15:35:07;;;;;;;;;;;;;;;19.71;46.83;103784.56;7288039;19;154119;-50
2021/12/17 15:37:34;;;;;;;;;;;;;;;19.70;47.19;103791.25;7279916;19;153230;-51
2021/12/17 15:40:01;;;;;;;;;;;;;;;19.67;47.12;103786.09;7282192;19;153991;-50
2021/12/17 15:42:28;;;;;;;;;;;;;;;19.66;47.32;103784.41;7280474;19;151830;-50
2021/12/17 15:44:55;;;;;;;;;;;;;;;19.66;47.38;103778.81;7281919;19;153289;-51
2021/12/17 15:47:21;;;;;;;;;;;;;;;19.66;47.31;103775.13;7282480;19;152921;-50
2021/12/17 15:49:48;;;;;;;;;;;;;;;19.65;46.97;103770.59;7283391;19;151781;-51
2021/12/17 15:52:15;;;;;;;;;;;;;;;19.65;47.36;103776.22;7280361;19;152345;-50
2021/12/17 15:54:43;;;;;;;;;;;;;;;19.65;47.12;103771.47;7282227;19;154137;-51
2021/12/17 15:57:10;;;;;;;;;;;;;;;19.61;47.19;103773.03;7287409;19;152231;-51
2021/12/17 15:59:37;;;;;;;;;;;;;;;19.63;47.37;103775.59;7281752;19;153917;-49
2021/12/17 16:02:04;;;;;;;;;;;;;;;19.62;46.97;103777.56;7282941;19;152272;-51
2021/12/17 16:04:36;;;;;;;;;;;;;;;19.59;47.28;103778.00;7281189;19;153691;-50
2021/12/17 16:07:04;;;;;;;;;;;;;;;19.58;47.33;103781.06;7282460;19;153121;-50
2021/12/17 16:12:10;;;;;;;;;;;;;;;19.57;47.45;103776.53;7282932;19;152632;-50